This is the latest recevied weather packets stored in our database for station/object SV9TNF-2. If no packets are shown the sender has not sent any weather packets the latest 10 day(s).
| Time | Temp. | Humidity | Pressure | Rain* | Wind** | Luminosity | Snow |
|---|---|---|---|---|---|---|---|
| 1777459163 | 24.44° C | 49% | 1023 hPa | 0 mm | 0.89 m/s, 99° | - | - |
| 1777458863 | 23.89° C | 49% | 1023 hPa | 0 mm | 2.24 m/s, 115° | - | - |
| 1777458563 | 24.44° C | 49% | 1023 hPa | 0 mm | 0.89 m/s, 135° | - | - |
| 1777458263 | 23.89° C | 48% | 1023 hPa | 0 mm | 4.92 m/s, 97° | - | - |
| 1777457963 | 24.44° C | 50% | 1023 hPa | 0 mm | 0.89 m/s, 202° | - | - |
| 1777457662 | 23.89° C | 48% | 1023 hPa | 0 mm | 1.79 m/s, 55° | - | - |
| 1777457362 | 24.44° C | 49% | 1023.4 hPa | 0 mm | 1.34 m/s, 77° | - | - |
| 1777457062 | 24.44° C | 46% | 1023.4 hPa | 0 mm | 2.24 m/s, 83° | - | - |
| 1777456762 | 24.44° C | 44% | 1023.4 hPa | 0 mm | 0.89 m/s, 48° | - | - |
| 1777456462 | 24.44° C | 46% | 1023.4 hPa | 0 mm | 2.68 m/s, 68° | - | - |
| 1777456162 | 24.44° C | 46% | 1023.4 hPa | 0 mm | 1.34 m/s, 260° | - | - |
| 1777455862 | 24.44° C | 45% | 1023.4 hPa | 0 mm | 1.34 m/s, 84° | - | - |
| 1777455562 | 25.56° C | 43% | 1023.4 hPa | 0 mm | 1.34 m/s, 187° | - | - |
| 1777455261 | 25.56° C | 43% | 1023.7 hPa | 0 mm | 1.34 m/s, 285° | - | - |
| 1777454961 | 25° C | 43% | 1023.7 hPa | 0 mm | 2.24 m/s, 80° | - | - |
| 1777454662 | 25.56° C | 42% | 1023.7 hPa | 0 mm | 0.89 m/s, 60° | - | - |
| 1777454362 | 25.56° C | 43% | 1023.7 hPa | 0 mm | 0.89 m/s, 168° | - | - |
| 1777454061 | 23.89° C | 43% | 1023.7 hPa | 0 mm | 5.81 m/s, 13° | - | - |
| 1777453761 | 24.44° C | 40% | 1023.4 hPa | 0 mm | 1.34 m/s, 17° | - | - |
| 1777453461 | 24.44° C | 41% | 1023.4 hPa | 0 mm | 3.13 m/s, 353° | - | - |
| 1777453161 | 25° C | 44% | 1023.7 hPa | 0 mm | 0.45 m/s, 356° | - | - |
| 1777452861 | 25° C | 40% | 1023.7 hPa | 0 mm | 4.02 m/s, 252° | - | - |
| 1777452561 | 24.44° C | 43% | 1023.7 hPa | 0 mm | 1.34 m/s, 198° | - | - |
| 1777452261 | 24.44° C | 42% | 1023.4 hPa | 0 mm | 2.24 m/s, 22° | - | - |
| 1777451960 | 24.44° C | 41% | 1023.4 hPa | 0 mm | 1.34 m/s, 244° | - | - |
* Rain latest hour (hover to see other rain measurements)
** Current wind speed in m/s (hover to see current wind gust speed)